Kitsissorsuit

KL  EN  DA
ASIAQ
Weather Now GREENLAND SURVEY
Updated [WGT/WGST] Temperature [°C] Wind [m/s] Air pressure [hPa] Relative humidity [%] Precipitation [mm]
Present Wind chill Speed Max
25.02 08:00-21,0-31,35,1 ⇐6,7101572n/a
25.02 07:00-22,0-30,83,6 ⇐6,7101476n/a
25.02 06:00-23,9-33,13,6 ⇐6,2101476n/a
25.02 05:00-24,0-32,53,1 ⇖4,1101477n/a
25.02 04:00-25,3-32,12,1 ⇑2,6101377n/a
25.02 03:00-26,1-36,54,1 ⇖6,2101377n/a
25.02 02:00-25,0-32,82,6 ⇖3,1101276n/a
25.02 01:00-24,4-34,44,1 ⇖4,6101178n/a
25.02 00:00-24,0-30,62,1 ⇖2,6101177n/a
24.02 23:00-23,8-30,42,1 ⇖2,6101078n/a
24.02 22:00-24,1-30,72,1 ⇙2,1101078n/a
24.02 21:00-23,8-28,91,5 ⇓1,5100978n/a
24.02 20:00-24,0-31,62,6 ⇓2,6100878n/a
24.02 19:00-24,0-33,94,1 ⇙4,1100878n/a
24.02 18:00-24,5-33,83,6 ⇙4,1100778n/a
24.02 17:00-25,2-35,44,1 ⇙4,1100677n/a
24.02 16:00-24,6-34,64,1 ⇙4,1100577n/a
24.02 15:00-24,5-33,83,6 ⇙3,6100576n/a
24.02 14:00-23,7-28,81,5 ⇙2,1100475n/a
24.02 13:00-23,3-28,31,5 ⇐1,5100476n/a
24.02 12:00-23,8-30,42,1 ⇙2,6100376n/a
24.02 11:00-24,0-29,11,5 ⇙2,1100375n/a
24.02 10:00-23,9-33,13,6 ⇐3,6100277n/a
24.02 09:00-24,6-33,23,1 ⇐4,1100177n/a
24.02 08:00-24,7-33,33,1 ⇐4,6100178n/a
Position: (74.0605555555,-57.723055555555)

[Back]